sensor_id;sensor_type;location;lat;lon;timestamp;temperature;humidity
19085;DHT22;9675;51.538;6.728;2023-02-28T00:01:20;4.90;99.90
19085;DHT22;9675;51.538;6.728;2023-02-28T00:03:48;4.80;99.90
19085;DHT22;9675;51.538;6.728;2023-02-28T00:06:16;4.80;99.90
19085;DHT22;9675;51.538;6.728;2023-02-28T00:08:43;4.80;99.90
19085;DHT22;9675;51.538;6.728;2023-02-28T00:11:13;4.80;99.90
19085;DHT22;9675;51.538;6.728;2023-02-28T00:13:44;4.80;99.90
19085;DHT22;9675;51.538;6.728;2023-02-28T00:16:14;4.70;99.90
19085;DHT22;9675;51.538;6.728;2023-02-28T00:18:43;4.70;99.90
19085;DHT22;9675;51.538;6.728;2023-02-28T00:21:11;4.70;99.90
19085;DHT22;9675;51.538;6.728;2023-02-28T00:23:38;4.60;99.90
19085;DHT22;9675;51.538;6.728;2023-02-28T00:26:05;4.60;99.90
19085;DHT22;9675;51.538;6.728;2023-02-28T00:28:32;4.60;99.90
19085;DHT22;9675;51.538;6.728;2023-02-28T00:31:00;4.60;99.90
19085;DHT22;9675;51.538;6.728;2023-02-28T00:33:28;4.50;99.90
19085;DHT22;9675;51.538;6.728;2023-02-28T00:36:06;4.50;99.90
19085;DHT22;9675;51.538;6.728;2023-02-28T00:38:34;4.50;99.90
19085;DHT22;9675;51.538;6.728;2023-02-28T00:41:02;4.50;99.90
19085;DHT22;9675;51.538;6.728;2023-02-28T00:43:31;4.40;99.90
19085;DHT22;9675;51.538;6.728;2023-02-28T00:46:01;4.40;99.90
19085;DHT22;9675;51.538;6.728;2023-02-28T00:48:28;4.40;99.90
19085;DHT22;9675;51.538;6.728;2023-02-28T00:50:55;4.40;99.90
19085;DHT22;9675;51.538;6.728;2023-02-28T00:53:22;4.30;99.90
19085;DHT22;9675;51.538;6.728;2023-02-28T00:55:50;4.30;99.90
19085;DHT22;9675;51.538;6.728;2023-02-28T00:58:17;4.30;99.90
19085;DHT22;9675;51.538;6.728;2023-02-28T01:00:44;4.30;99.90
19085;DHT22;9675;51.538;6.728;2023-02-28T01:03:16;4.30;99.90
19085;DHT22;9675;51.538;6.728;2023-02-28T01:05:44;4.30;99.90
19085;DHT22;9675;51.538;6.728;2023-02-28T01:08:12;4.30;99.90
19085;DHT22;9675;51.538;6.728;2023-02-28T01:10:40;4.20;99.90
19085;DHT22;9675;51.538;6.728;2023-02-28T01:13:07;4.20;99.90
19085;DHT22;9675;51.538;6.728;2023-02-28T01:15:34;4.20;99.90
19085;DHT22;9675;51.538;6.728;2023-02-28T01:18:01;4.20;99.90
19085;DHT22;9675;51.538;6.728;2023-02-28T01:20:30;4.20;99.90
19085;DHT22;9675;51.538;6.728;2023-02-28T01:22:57;4.10;99.90
19085;DHT22;9675;51.538;6.728;2023-02-28T01:25:24;4.10;99.90
19085;DHT22;9675;51.538;6.728;2023-02-28T01:27:51;4.10;99.90
19085;DHT22;9675;51.538;6.728;2023-02-28T01:30:18;4.00;99.90
19085;DHT22;9675;51.538;6.728;2023-02-28T01:32:45;4.00;99.90
19085;DHT22;9675;51.538;6.728;2023-02-28T01:35:12;4.00;99.90
19085;DHT22;9675;51.538;6.728;2023-02-28T01:37:40;4.00;99.90
19085;DHT22;9675;51.538;6.728;2023-02-28T01:40:08;4.00;99.90
19085;DHT22;9675;51.538;6.728;2023-02-28T01:42:36;4.00;99.90
19085;DHT22;9675;51.538;6.728;2023-02-28T01:45:16;3.90;99.90
19085;DHT22;9675;51.538;6.728;2023-02-28T01:47:49;3.90;99.90
19085;DHT22;9675;51.538;6.728;2023-02-28T01:50:21;3.90;99.90
19085;DHT22;9675;51.538;6.728;2023-02-28T01:52:54;3.90;99.90
19085;DHT22;9675;51.538;6.728;2023-02-28T01:55:28;3.90;99.90
19085;DHT22;9675;51.538;6.728;2023-02-28T01:57:58;3.90;99.90
19085;DHT22;9675;51.538;6.728;2023-02-28T02:00:29;3.90;99.90
19085;DHT22;9675;51.538;6.728;2023-02-28T02:02:59;3.90;99.90
19085;DHT22;9675;51.538;6.728;2023-02-28T02:05:31;3.80;99.90
19085;DHT22;9675;51.538;6.728;2023-02-28T02:08:04;3.80;99.90
19085;DHT22;9675;51.538;6.728;2023-02-28T02:10:34;3.80;99.90
19085;DHT22;9675;51.538;6.728;2023-02-28T02:13:19;3.70;99.90
19085;DHT22;9675;51.538;6.728;2023-02-28T02:16:04;3.70;99.90
19085;DHT22;9675;51.538;6.728;2023-02-28T02:18:43;3.60;99.90
19085;DHT22;9675;51.538;6.728;2023-02-28T02:21:54;3.60;99.90
19085;DHT22;9675;51.538;6.728;2023-02-28T02:25:05;3.60;99.90
19085;DHT22;9675;51.538;6.728;2023-02-28T02:28:01;3.50;99.90
19085;DHT22;9675;51.538;6.728;2023-02-28T02:31:06;3.50;99.90
19085;DHT22;9675;51.538;6.728;2023-02-28T02:34:26;3.50;99.90
19085;DHT22;9675;51.538;6.728;2023-02-28T02:37:09;3.50;99.90
19085;DHT22;9675;51.538;6.728;2023-02-28T02:39:48;3.40;99.90
19085;DHT22;9675;51.538;6.728;2023-02-28T02:42:24;3.40;99.90
19085;DHT22;9675;51.538;6.728;2023-02-28T02:44:59;3.40;99.90
19085;DHT22;9675;51.538;6.728;2023-02-28T02:47:32;3.40;99.90
19085;DHT22;9675;51.538;6.728;2023-02-28T02:50:07;3.40;99.90
19085;DHT22;9675;51.538;6.728;2023-02-28T02:52:44;3.30;99.90
19085;DHT22;9675;51.538;6.728;2023-02-28T02:55:17;3.30;99.90
19085;DHT22;9675;51.538;6.728;2023-02-28T02:57:48;3.30;99.90
19085;DHT22;9675;51.538;6.728;2023-02-28T03:00:23;3.30;99.90
19085;DHT22;9675;51.538;6.728;2023-02-28T03:02:56;3.20;99.90
19085;DHT22;9675;51.538;6.728;2023-02-28T03:05:26;3.20;99.90
19085;DHT22;9675;51.538;6.728;2023-02-28T03:07:57;3.20;99.90
19085;DHT22;9675;51.538;6.728;2023-02-28T03:10:34;3.20;99.90
19085;DHT22;9675;51.538;6.728;2023-02-28T03:13:32;3.20;99.90
19085;DHT22;9675;51.538;6.728;2023-02-28T03:16:28;3.20;99.90
19085;DHT22;9675;51.538;6.728;2023-02-28T03:19:18;3.20;99.90
19085;DHT22;9675;51.538;6.728;2023-02-28T03:22:09;3.10;99.90
19085;DHT22;9675;51.538;6.728;2023-02-28T03:24:49;3.10;99.90
19085;DHT22;9675;51.538;6.728;2023-02-28T03:27:24;3.10;99.90
19085;DHT22;9675;51.538;6.728;2023-02-28T03:30:00;3.10;99.90
19085;DHT22;9675;51.538;6.728;2023-02-28T03:32:35;3.00;99.90
19085;DHT22;9675;51.538;6.728;2023-02-28T03:35:10;3.00;99.90
19085;DHT22;9675;51.538;6.728;2023-02-28T03:37:52;3.00;99.90
19085;DHT22;9675;51.538;6.728;2023-02-28T03:40:26;3.00;99.90
19085;DHT22;9675;51.538;6.728;2023-02-28T03:43:03;3.00;99.90
19085;DHT22;9675;51.538;6.728;2023-02-28T03:45:48;3.00;99.90
19085;DHT22;9675;51.538;6.728;2023-02-28T03:48:20;3.00;99.90
19085;DHT22;9675;51.538;6.728;2023-02-28T03:50:53;3.00;99.90
19085;DHT22;9675;51.538;6.728;2023-02-28T03:53:29;2.90;99.90
19085;DHT22;9675;51.538;6.728;2023-02-28T03:56:03;2.90;99.90
19085;DHT22;9675;51.538;6.728;2023-02-28T03:58:40;2.90;99.90
19085;DHT22;9675;51.538;6.728;2023-02-28T04:01:13;2.80;99.90
19085;DHT22;9675;51.538;6.728;2023-02-28T04:03:46;2.80;99.90
19085;DHT22;9675;51.538;6.728;2023-02-28T04:06:16;2.80;99.90
19085;DHT22;9675;51.538;6.728;2023-02-28T04:08:47;2.80;99.90
19085;DHT22;9675;51.538;6.728;2023-02-28T04:11:20;2.80;99.90
19085;DHT22;9675;51.538;6.728;2023-02-28T04:13:49;2.70;99.90
19085;DHT22;9675;51.538;6.728;2023-02-28T04:16:17;2.70;99.90
19085;DHT22;9675;51.538;6.728;2023-02-28T04:18:44;2.70;99.90
19085;DHT22;9675;51.538;6.728;2023-02-28T04:21:11;2.60;99.90
19085;DHT22;9675;51.538;6.728;2023-02-28T04:23:39;2.60;99.90
19085;DHT22;9675;51.538;6.728;2023-02-28T04:26:07;2.60;99.90
19085;DHT22;9675;51.538;6.728;2023-02-28T04:28:34;2.60;99.90
19085;DHT22;9675;51.538;6.728;2023-02-28T04:31:05;2.50;99.90
19085;DHT22;9675;51.538;6.728;2023-02-28T04:33:32;2.50;99.90
19085;DHT22;9675;51.538;6.728;2023-02-28T04:36:00;2.50;99.90
19085;DHT22;9675;51.538;6.728;2023-02-28T04:38:29;2.50;99.90
19085;DHT22;9675;51.538;6.728;2023-02-28T04:40:57;2.50;99.90
19085;DHT22;9675;51.538;6.728;2023-02-28T04:43:26;2.50;99.90
19085;DHT22;9675;51.538;6.728;2023-02-28T04:45:54;2.50;99.90
19085;DHT22;9675;51.538;6.728;2023-02-28T04:48:22;2.40;99.90
19085;DHT22;9675;51.538;6.728;2023-02-28T04:50:51;2.50;99.90
19085;DHT22;9675;51.538;6.728;2023-02-28T04:53:18;2.40;99.90
19085;DHT22;9675;51.538;6.728;2023-02-28T04:55:46;2.40;99.90
19085;DHT22;9675;51.538;6.728;2023-02-28T04:58:13;2.30;99.90
19085;DHT22;9675;51.538;6.728;2023-02-28T05:00:42;2.20;99.90
19085;DHT22;9675;51.538;6.728;2023-02-28T05:03:09;2.20;99.90
19085;DHT22;9675;51.538;6.728;2023-02-28T05:05:36;2.10;99.90
19085;DHT22;9675;51.538;6.728;2023-02-28T05:08:03;2.10;99.90
19085;DHT22;9675;51.538;6.728;2023-02-28T05:10:31;2.10;99.90
19085;DHT22;9675;51.538;6.728;2023-02-28T05:12:58;2.10;99.90
19085;DHT22;9675;51.538;6.728;2023-02-28T05:15:25;2.00;99.90
19085;DHT22;9675;51.538;6.728;2023-02-28T05:17:53;2.00;99.90
19085;DHT22;9675;51.538;6.728;2023-02-28T05:20:20;2.00;99.90
19085;DHT22;9675;51.538;6.728;2023-02-28T05:22:47;2.00;99.90
19085;DHT22;9675;51.538;6.728;2023-02-28T05:25:17;2.00;99.90
19085;DHT22;9675;51.538;6.728;2023-02-28T05:27:47;1.90;99.90
19085;DHT22;9675;51.538;6.728;2023-02-28T05:30:14;2.00;99.90
19085;DHT22;9675;51.538;6.728;2023-02-28T05:32:42;1.90;99.90
19085;DHT22;9675;51.538;6.728;2023-02-28T05:35:11;1.90;99.90
19085;DHT22;9675;51.538;6.728;2023-02-28T05:37:38;1.90;99.90
19085;DHT22;9675;51.538;6.728;2023-02-28T05:40:07;1.80;99.90
19085;DHT22;9675;51.538;6.728;2023-02-28T05:42:35;1.80;99.90
19085;DHT22;9675;51.538;6.728;2023-02-28T05:45:03;1.80;99.90
19085;DHT22;9675;51.538;6.728;2023-02-28T05:47:32;1.80;99.90
19085;DHT22;9675;51.538;6.728;2023-02-28T05:49:59;1.80;99.90
19085;DHT22;9675;51.538;6.728;2023-02-28T05:52:29;1.70;99.90
19085;DHT22;9675;51.538;6.728;2023-02-28T05:54:56;1.70;99.90
19085;DHT22;9675;51.538;6.728;2023-02-28T05:57:23;1.70;99.90
19085;DHT22;9675;51.538;6.728;2023-02-28T05:59:51;1.70;99.90
19085;DHT22;9675;51.538;6.728;2023-02-28T06:02:18;1.70;99.90
19085;DHT22;9675;51.538;6.728;2023-02-28T06:04:45;1.70;99.90
19085;DHT22;9675;51.538;6.728;2023-02-28T06:07:12;1.70;99.90
19085;DHT22;9675;51.538;6.728;2023-02-28T06:09:41;1.60;99.90
19085;DHT22;9675;51.538;6.728;2023-02-28T06:12:10;1.70;99.90
19085;DHT22;9675;51.538;6.728;2023-02-28T06:14:37;1.60;99.90
19085;DHT22;9675;51.538;6.728;2023-02-28T06:17:04;1.70;99.90
19085;DHT22;9675;51.538;6.728;2023-02-28T06:19:31;1.60;99.90
19085;DHT22;9675;51.538;6.728;2023-02-28T06:21:59;1.60;99.90
19085;DHT22;9675;51.538;6.728;2023-02-28T06:24:26;1.60;99.90
19085;DHT22;9675;51.538;6.728;2023-02-28T06:26:58;1.60;99.90
19085;DHT22;9675;51.538;6.728;2023-02-28T06:29:30;1.50;99.90
19085;DHT22;9675;51.538;6.728;2023-02-28T06:31:57;1.50;99.90
19085;DHT22;9675;51.538;6.728;2023-02-28T06:34:25;1.50;99.90
19085;DHT22;9675;51.538;6.728;2023-02-28T06:36:53;1.40;99.90
19085;DHT22;9675;51.538;6.728;2023-02-28T06:39:20;1.50;99.90
19085;DHT22;9675;51.538;6.728;2023-02-28T06:41:47;1.40;99.90
19085;DHT22;9675;51.538;6.728;2023-02-28T06:44:18;1.40;99.90
19085;DHT22;9675;51.538;6.728;2023-02-28T06:46:45;1.40;99.90
19085;DHT22;9675;51.538;6.728;2023-02-28T06:49:13;1.40;99.90
19085;DHT22;9675;51.538;6.728;2023-02-28T06:51:43;1.40;99.90
19085;DHT22;9675;51.538;6.728;2023-02-28T06:54:20;1.30;99.90
19085;DHT22;9675;51.538;6.728;2023-02-28T06:56:47;1.40;99.90
19085;DHT22;9675;51.538;6.728;2023-02-28T06:59:14;1.40;99.90
19085;DHT22;9675;51.538;6.728;2023-02-28T07:01:44;1.40;99.90
19085;DHT22;9675;51.538;6.728;2023-02-28T07:04:11;1.40;99.90
19085;DHT22;9675;51.538;6.728;2023-02-28T07:06:40;1.40;99.90
19085;DHT22;9675;51.538;6.728;2023-02-28T07:09:08;1.40;99.90
19085;DHT22;9675;51.538;6.728;2023-02-28T07:11:40;1.40;99.90
19085;DHT22;9675;51.538;6.728;2023-02-28T07:14:09;1.40;99.90
19085;DHT22;9675;51.538;6.728;2023-02-28T07:16:38;1.30;99.90
19085;DHT22;9675;51.538;6.728;2023-02-28T07:19:11;1.30;99.90
19085;DHT22;9675;51.538;6.728;2023-02-28T07:21:38;1.30;99.90
19085;DHT22;9675;51.538;6.728;2023-02-28T07:24:06;1.30;99.90
19085;DHT22;9675;51.538;6.728;2023-02-28T07:26:33;1.30;99.90
19085;DHT22;9675;51.538;6.728;2023-02-28T07:29:00;1.30;99.90
19085;DHT22;9675;51.538;6.728;2023-02-28T07:31:28;1.30;99.90
19085;DHT22;9675;51.538;6.728;2023-02-28T07:34:02;1.30;99.90
19085;DHT22;9675;51.538;6.728;2023-02-28T07:36:31;1.30;99.90
19085;DHT22;9675;51.538;6.728;2023-02-28T07:38:59;1.30;99.90
19085;DHT22;9675;51.538;6.728;2023-02-28T07:41:26;1.30;99.90
19085;DHT22;9675;51.538;6.728;2023-02-28T07:43:59;1.30;99.90
19085;DHT22;9675;51.538;6.728;2023-02-28T07:46:27;1.30;99.90
19085;DHT22;9675;51.538;6.728;2023-02-28T07:48:54;1.30;99.90
19085;DHT22;9675;51.538;6.728;2023-02-28T07:51:24;1.30;99.90
19085;DHT22;9675;51.538;6.728;2023-02-28T07:53:53;1.30;99.90
19085;DHT22;9675;51.538;6.728;2023-02-28T07:56:21;1.40;99.90
19085;DHT22;9675;51.538;6.728;2023-02-28T07:58:49;1.40;99.90
19085;DHT22;9675;51.538;6.728;2023-02-28T08:01:17;1.40;99.90
19085;DHT22;9675;51.538;6.728;2023-02-28T08:03:45;1.40;99.90
19085;DHT22;9675;51.538;6.728;2023-02-28T08:06:16;1.40;99.90
19085;DHT22;9675;51.538;6.728;2023-02-28T08:08:46;1.40;99.90
19085;DHT22;9675;51.538;6.728;2023-02-28T08:11:15;1.40;99.90
19085;DHT22;9675;51.538;6.728;2023-02-28T08:13:43;1.40;99.90
19085;DHT22;9675;51.538;6.728;2023-02-28T08:16:11;1.40;99.90
19085;DHT22;9675;51.538;6.728;2023-02-28T08:18:42;1.40;99.90
19085;DHT22;9675;51.538;6.728;2023-02-28T08:21:10;1.40;99.90
19085;DHT22;9675;51.538;6.728;2023-02-28T08:23:37;1.50;99.90
19085;DHT22;9675;51.538;6.728;2023-02-28T08:26:04;1.50;99.90
19085;DHT22;9675;51.538;6.728;2023-02-28T08:28:33;1.50;99.90
19085;DHT22;9675;51.538;6.728;2023-02-28T08:31:01;1.60;99.90
19085;DHT22;9675;51.538;6.728;2023-02-28T08:33:36;1.60;99.90
19085;DHT22;9675;51.538;6.728;2023-02-28T08:36:05;1.70;99.90
19085;DHT22;9675;51.538;6.728;2023-02-28T08:38:33;1.80;99.90
19085;DHT22;9675;51.538;6.728;2023-02-28T08:41:02;1.80;99.90
19085;DHT22;9675;51.538;6.728;2023-02-28T08:43:32;1.90;99.90
19085;DHT22;9675;51.538;6.728;2023-02-28T08:46:00;2.00;99.90
19085;DHT22;9675;51.538;6.728;2023-02-28T08:48:28;2.00;99.90
19085;DHT22;9675;51.538;6.728;2023-02-28T08:50:57;2.10;99.90
19085;DHT22;9675;51.538;6.728;2023-02-28T08:53:26;2.20;99.90
19085;DHT22;9675;51.538;6.728;2023-02-28T08:55:57;2.30;99.90
19085;DHT22;9675;51.538;6.728;2023-02-28T08:58:25;2.30;99.90
19085;DHT22;9675;51.538;6.728;2023-02-28T09:00:54;2.40;99.90
19085;DHT22;9675;51.538;6.728;2023-02-28T09:03:21;2.40;99.90
19085;DHT22;9675;51.538;6.728;2023-02-28T09:05:56;2.50;99.90
19085;DHT22;9675;51.538;6.728;2023-02-28T09:08:28;2.60;99.90
19085;DHT22;9675;51.538;6.728;2023-02-28T09:10:56;2.70;99.90
19085;DHT22;9675;51.538;6.728;2023-02-28T09:13:25;2.70;99.90
19085;DHT22;9675;51.538;6.728;2023-02-28T09:15:56;2.80;99.90
19085;DHT22;9675;51.538;6.728;2023-02-28T09:18:24;2.90;99.90
19085;DHT22;9675;51.538;6.728;2023-02-28T09:20:51;3.00;99.90
19085;DHT22;9675;51.538;6.728;2023-02-28T09:23:19;3.00;99.90
19085;DHT22;9675;51.538;6.728;2023-02-28T09:25:48;3.10;99.90
19085;DHT22;9675;51.538;6.728;2023-02-28T09:28:18;3.20;99.90
19085;DHT22;9675;51.538;6.728;2023-02-28T09:30:47;3.30;99.90
19085;DHT22;9675;51.538;6.728;2023-02-28T09:33:17;3.40;99.90
19085;DHT22;9675;51.538;6.728;2023-02-28T09:35:46;3.50;99.90
19085;DHT22;9675;51.538;6.728;2023-02-28T09:38:13;3.60;99.90
19085;DHT22;9675;51.538;6.728;2023-02-28T09:40:48;3.70;99.90
19085;DHT22;9675;51.538;6.728;2023-02-28T09:43:19;3.80;99.90
19085;DHT22;9675;51.538;6.728;2023-02-28T09:45:51;3.90;99.90
19085;DHT22;9675;51.538;6.728;2023-02-28T09:48:29;4.00;99.90
19085;DHT22;9675;51.538;6.728;2023-02-28T09:51:04;4.20;99.90
19085;DHT22;9675;51.538;6.728;2023-02-28T09:53:37;4.30;99.90
19085;DHT22;9675;51.538;6.728;2023-02-28T09:56:08;4.40;99.90
19085;DHT22;9675;51.538;6.728;2023-02-28T09:58:44;4.50;99.90
19085;DHT22;9675;51.538;6.728;2023-02-28T10:01:23;4.70;99.90
19085;DHT22;9675;51.538;6.728;2023-02-28T10:04:00;4.70;99.90
19085;DHT22;9675;51.538;6.728;2023-02-28T10:06:40;4.90;99.90
19085;DHT22;9675;51.538;6.728;2023-02-28T10:09:17;5.00;99.90
19085;DHT22;9675;51.538;6.728;2023-02-28T10:11:51;5.10;99.90
19085;DHT22;9675;51.538;6.728;2023-02-28T10:14:22;5.30;99.90
19085;DHT22;9675;51.538;6.728;2023-02-28T10:16:55;5.50;99.90
19085;DHT22;9675;51.538;6.728;2023-02-28T10:19:32;5.60;99.90
19085;DHT22;9675;51.538;6.728;2023-02-28T10:22:05;5.70;99.90
19085;DHT22;9675;51.538;6.728;2023-02-28T10:24:41;5.90;99.90
19085;DHT22;9675;51.538;6.728;2023-02-28T10:27:13;6.00;99.90
19085;DHT22;9675;51.538;6.728;2023-02-28T10:29:45;6.10;99.90
19085;DHT22;9675;51.538;6.728;2023-02-28T10:32:15;6.20;99.90
19085;DHT22;9675;51.538;6.728;2023-02-28T10:34:49;6.40;99.90
19085;DHT22;9675;51.538;6.728;2023-02-28T10:37:19;6.50;99.90
19085;DHT22;9675;51.538;6.728;2023-02-28T10:39:47;6.60;99.90
19085;DHT22;9675;51.538;6.728;2023-02-28T10:42:20;6.70;99.90
19085;DHT22;9675;51.538;6.728;2023-02-28T10:45:06;6.80;99.90
19085;DHT22;9675;51.538;6.728;2023-02-28T10:47:48;6.90;99.90
19085;DHT22;9675;51.538;6.728;2023-02-28T10:50:34;7.00;99.90
19085;DHT22;9675;51.538;6.728;2023-02-28T10:53:23;7.10;99.90
19085;DHT22;9675;51.538;6.728;2023-02-28T10:55:59;7.20;99.90
19085;DHT22;9675;51.538;6.728;2023-02-28T10:58:29;7.20;99.90
19085;DHT22;9675;51.538;6.728;2023-02-28T11:00:59;7.30;99.90
19085;DHT22;9675;51.538;6.728;2023-02-28T11:03:31;7.40;99.90
19085;DHT22;9675;51.538;6.728;2023-02-28T11:06:07;7.50;99.90
19085;DHT22;9675;51.538;6.728;2023-02-28T11:08:46;7.50;99.90
19085;DHT22;9675;51.538;6.728;2023-02-28T11:11:15;7.50;99.90
19085;DHT22;9675;51.538;6.728;2023-02-28T11:13:45;7.60;99.90
19085;DHT22;9675;51.538;6.728;2023-02-28T11:16:16;7.60;99.90
19085;DHT22;9675;51.538;6.728;2023-02-28T11:18:48;7.60;99.90
19085;DHT22;9675;51.538;6.728;2023-02-28T11:21:21;7.60;99.90
19085;DHT22;9675;51.538;6.728;2023-02-28T11:23:53;7.60;99.90
19085;DHT22;9675;51.538;6.728;2023-02-28T11:26:37;7.70;99.90
19085;DHT22;9675;51.538;6.728;2023-02-28T11:29:17;7.70;99.90
19085;DHT22;9675;51.538;6.728;2023-02-28T11:32:05;7.70;99.90
19085;DHT22;9675;51.538;6.728;2023-02-28T11:34:40;7.70;99.90
19085;DHT22;9675;51.538;6.728;2023-02-28T11:37:13;7.70;99.90
19085;DHT22;9675;51.538;6.728;2023-02-28T11:39:42;7.80;99.90
19085;DHT22;9675;51.538;6.728;2023-02-28T11:42:34;7.90;99.90
19085;DHT22;9675;51.538;6.728;2023-02-28T11:45:27;8.00;99.90
19085;DHT22;9675;51.538;6.728;2023-02-28T11:48:17;8.10;99.90
19085;DHT22;9675;51.538;6.728;2023-02-28T11:51:02;8.20;99.90
19085;DHT22;9675;51.538;6.728;2023-02-28T11:54:00;8.30;99.90
19085;DHT22;9675;51.538;6.728;2023-02-28T11:56:46;8.40;99.90
19085;DHT22;9675;51.538;6.728;2023-02-28T11:59:29;8.50;99.90
19085;DHT22;9675;51.538;6.728;2023-02-28T12:02:22;8.50;99.90
19085;DHT22;9675;51.538;6.728;2023-02-28T12:04:59;8.50;99.90
19085;DHT22;9675;51.538;6.728;2023-02-28T12:07:48;8.50;99.90
19085;DHT22;9675;51.538;6.728;2023-02-28T12:10:25;8.60;99.90
19085;DHT22;9675;51.538;6.728;2023-02-28T12:13:05;8.60;99.90
19085;DHT22;9675;51.538;6.728;2023-02-28T12:16:04;8.70;99.90
19085;DHT22;9675;51.538;6.728;2023-02-28T12:19:07;8.70;99.90
19085;DHT22;9675;51.538;6.728;2023-02-28T12:25:24;8.80;99.90
19085;DHT22;9675;51.538;6.728;2023-02-28T12:28:08;8.90;99.90
19085;DHT22;9675;51.538;6.728;2023-02-28T12:30:43;9.10;99.90
19085;DHT22;9675;51.538;6.728;2023-02-28T12:33:19;9.20;99.90
19085;DHT22;9675;51.538;6.728;2023-02-28T12:35:51;9.30;99.90
19085;DHT22;9675;51.538;6.728;2023-02-28T12:38:22;9.40;99.90
19085;DHT22;9675;51.538;6.728;2023-02-28T12:40:56;9.50;99.90
19085;DHT22;9675;51.538;6.728;2023-02-28T12:43:32;9.50;99.90
19085;DHT22;9675;51.538;6.728;2023-02-28T12:46:04;9.50;99.90
19085;DHT22;9675;51.538;6.728;2023-02-28T12:48:40;9.50;99.90
19085;DHT22;9675;51.538;6.728;2023-02-28T12:51:12;9.60;99.90
19085;DHT22;9675;51.538;6.728;2023-02-28T12:53:54;9.80;99.90
19085;DHT22;9675;51.538;6.728;2023-02-28T12:56:36;9.90;99.90
19085;DHT22;9675;51.538;6.728;2023-02-28T12:59:17;10.00;99.90
19085;DHT22;9675;51.538;6.728;2023-02-28T13:05:29;10.30;99.90
19085;DHT22;9675;51.538;6.728;2023-02-28T13:08:28;10.40;99.90
19085;DHT22;9675;51.538;6.728;2023-02-28T13:11:28;10.40;99.90
19085;DHT22;9675;51.538;6.728;2023-02-28T13:14:01;10.60;99.90
19085;DHT22;9675;51.538;6.728;2023-02-28T13:16:54;10.60;99.90
19085;DHT22;9675;51.538;6.728;2023-02-28T13:19:29;10.60;99.90
19085;DHT22;9675;51.538;6.728;2023-02-28T13:21:59;10.60;99.90
19085;DHT22;9675;51.538;6.728;2023-02-28T13:24:44;10.70;99.90
19085;DHT22;9675;51.538;6.728;2023-02-28T13:27:35;10.70;99.90
19085;DHT22;9675;51.538;6.728;2023-02-28T13:33:30;10.80;99.90
19085;DHT22;9675;51.538;6.728;2023-02-28T13:36:08;10.80;99.90
19085;DHT22;9675;51.538;6.728;2023-02-28T13:38:39;10.90;99.90
19085;DHT22;9675;51.538;6.728;2023-02-28T13:41:43;11.00;99.90
19085;DHT22;9675;51.538;6.728;2023-02-28T13:44:11;11.00;99.90
19085;DHT22;9675;51.538;6.728;2023-02-28T13:47:20;11.00;99.90
19085;DHT22;9675;51.538;6.728;2023-02-28T13:50:15;11.00;99.90
19085;DHT22;9675;51.538;6.728;2023-02-28T13:52:56;10.90;99.90
19085;DHT22;9675;51.538;6.728;2023-02-28T13:55:46;11.00;99.90
19085;DHT22;9675;51.538;6.728;2023-02-28T13:58:32;11.00;99.90
19085;DHT22;9675;51.538;6.728;2023-02-28T14:01:28;10.90;99.90
19085;DHT22;9675;51.538;6.728;2023-02-28T14:04:33;10.90;99.90
19085;DHT22;9675;51.538;6.728;2023-02-28T14:07:20;11.00;99.90
19085;DHT22;9675;51.538;6.728;2023-02-28T14:09:57;11.10;99.90
19085;DHT22;9675;51.538;6.728;2023-02-28T14:15:46;11.20;99.90
19085;DHT22;9675;51.538;6.728;2023-02-28T14:18:20;11.40;99.90
19085;DHT22;9675;51.538;6.728;2023-02-28T14:20:53;11.40;99.90
19085;DHT22;9675;51.538;6.728;2023-02-28T14:23:57;11.40;99.90
19085;DHT22;9675;51.538;6.728;2023-02-28T14:36:41;11.50;99.90
19085;DHT22;9675;51.538;6.728;2023-02-28T14:39:14;11.60;99.90
19085;DHT22;9675;51.538;6.728;2023-02-28T14:41:46;11.60;99.90
19085;DHT22;9675;51.538;6.728;2023-02-28T14:44:16;11.60;99.90
19085;DHT22;9675;51.538;6.728;2023-02-28T14:46:46;11.50;99.90
19085;DHT22;9675;51.538;6.728;2023-02-28T14:49:19;11.50;99.90
19085;DHT22;9675;51.538;6.728;2023-02-28T14:51:49;11.50;99.90
19085;DHT22;9675;51.538;6.728;2023-02-28T14:54:29;11.40;99.90
19085;DHT22;9675;51.538;6.728;2023-02-28T14:56:56;11.40;99.90
19085;DHT22;9675;51.538;6.728;2023-02-28T14:59:26;11.30;99.90
19085;DHT22;9675;51.538;6.728;2023-02-28T15:02:17;11.30;99.90
19085;DHT22;9675;51.538;6.728;2023-02-28T15:04:53;11.30;99.90
19085;DHT22;9675;51.538;6.728;2023-02-28T15:07:22;11.30;99.90
19085;DHT22;9675;51.538;6.728;2023-02-28T15:10:09;11.30;99.90
19085;DHT22;9675;51.538;6.728;2023-02-28T15:12:40;11.30;99.90
19085;DHT22;9675;51.538;6.728;2023-02-28T15:15:15;11.20;99.90
19085;DHT22;9675;51.538;6.728;2023-02-28T15:17:46;11.20;99.90
19085;DHT22;9675;51.538;6.728;2023-02-28T15:20:17;11.20;99.90
19085;DHT22;9675;51.538;6.728;2023-02-28T15:22:46;11.20;99.90
19085;DHT22;9675;51.538;6.728;2023-02-28T15:25:19;11.10;99.90
19085;DHT22;9675;51.538;6.728;2023-02-28T15:27:50;11.10;99.90
19085;DHT22;9675;51.538;6.728;2023-02-28T15:30:21;11.10;99.90
19085;DHT22;9675;51.538;6.728;2023-02-28T15:33:19;11.10;99.90
19085;DHT22;9675;51.538;6.728;2023-02-28T15:35:47;11.00;99.90
19085;DHT22;9675;51.538;6.728;2023-02-28T15:38:17;11.10;99.90
19085;DHT22;9675;51.538;6.728;2023-02-28T15:40:53;11.10;99.90
19085;DHT22;9675;51.538;6.728;2023-02-28T15:43:26;11.10;99.90
19085;DHT22;9675;51.538;6.728;2023-02-28T15:45:57;11.10;99.90
19085;DHT22;9675;51.538;6.728;2023-02-28T15:48:28;11.10;99.90
19085;DHT22;9675;51.538;6.728;2023-02-28T15:51:02;11.10;99.90
19085;DHT22;9675;51.538;6.728;2023-02-28T15:53:37;11.00;99.90
19085;DHT22;9675;51.538;6.728;2023-02-28T15:56:20;10.90;99.90
19085;DHT22;9675;51.538;6.728;2023-02-28T15:58:53;10.90;99.90
19085;DHT22;9675;51.538;6.728;2023-02-28T16:01:25;10.80;99.90
19085;DHT22;9675;51.538;6.728;2023-02-28T16:03:58;10.80;99.90
19085;DHT22;9675;51.538;6.728;2023-02-28T16:06:40;10.80;99.90
19085;DHT22;9675;51.538;6.728;2023-02-28T16:09:10;10.80;99.90
19085;DHT22;9675;51.538;6.728;2023-02-28T16:11:44;10.80;99.90
19085;DHT22;9675;51.538;6.728;2023-02-28T16:14:15;10.70;99.90
19085;DHT22;9675;51.538;6.728;2023-02-28T16:16:45;10.70;99.90
19085;DHT22;9675;51.538;6.728;2023-02-28T16:19:14;10.70;99.90
19085;DHT22;9675;51.538;6.728;2023-02-28T16:21:41;10.60;99.90
19085;DHT22;9675;51.538;6.728;2023-02-28T16:24:08;10.60;99.90
19085;DHT22;9675;51.538;6.728;2023-02-28T16:26:36;10.50;99.90
19085;DHT22;9675;51.538;6.728;2023-02-28T16:29:11;10.50;99.90
19085;DHT22;9675;51.538;6.728;2023-02-28T16:31:42;10.40;99.90
19085;DHT22;9675;51.538;6.728;2023-02-28T16:34:09;10.40;99.90
19085;DHT22;9675;51.538;6.728;2023-02-28T16:36:36;10.50;99.90
19085;DHT22;9675;51.538;6.728;2023-02-28T16:39:03;10.60;99.90
19085;DHT22;9675;51.538;6.728;2023-02-28T16:41:30;10.80;99.90
19085;DHT22;9675;51.538;6.728;2023-02-28T16:43:59;10.90;99.90
19085;DHT22;9675;51.538;6.728;2023-02-28T16:46:33;11.10;99.90
19085;DHT22;9675;51.538;6.728;2023-02-28T16:49:01;11.20;99.90
19085;DHT22;9675;51.538;6.728;2023-02-28T16:51:28;11.20;99.90
19085;DHT22;9675;51.538;6.728;2023-02-28T16:53:55;11.30;99.90
19085;DHT22;9675;51.538;6.728;2023-02-28T16:56:24;11.40;99.90
19085;DHT22;9675;51.538;6.728;2023-02-28T16:58:53;11.40;99.90
19085;DHT22;9675;51.538;6.728;2023-02-28T17:01:26;11.40;99.90